Portada
METAR-TAF:

METAR-TAF

Aeropuertos :

Mécheria, Argelia

latitud: 34-56N, longitud: 000-26W, altitud: 1149 m

Observación

El informe se hizo hace 58 minutos, a las 20:00 UTC
Viento 12 kt del sur-suroeste
Temperatura 11°C
Humedad 62%
Presión 1022 hPa
Visibilidad 10 km o más
sin nubes por debajo de 1500 m y sin presencia de cumulonimbus.

METAR: DAAY 212000Z 21012KT CAVOK 11/04 Q1022

Hora: 21:58 (20:58 UTC)

Pronóstico

El informe se hizo hace 3 horas y 58 minutos, a las 17:00 UTC
Pronóstico válido del 21 a las 18 UTC al 22 a las 03 UTC
Viento 15 kt del suroeste
Visibilidad 10 km o más
sin nubes por debajo de 1500 m y sin presencia de cumulonimbus.
Evolucionando progresivamente
del 21 a las 22 UTC al 21 a las 24 UTC
Viento 2 kt con dirección variable

TAF: DAAY 211700Z 2118/2203 22015KT CAVOK BECMG 2122/2124 VRB02KT

Observaciones y pronósticos meteorológicos de más de 4000 aeropuertos (mensajes METAR y TAF).

Los puntos amarillos y rojos representan las estaciones disponibles.

Ponga el ratón en el punto deseado para ver el nombre de la estación.

Haga clic para ver las observaciones y los pronósticos meteorológicos.

Para cambiar el mapa : haga clic en los botones verdes con una cruz de color negro para hacer un zoom, en el botón verde con un guión para alejar o en las flechas verdes para mapas adyacentes.


METAR-TAF: